CheckWX is a tool to help pilots better visualize weather data.  It is not intended as a substitute for an official pre-flight weather briefing.

12:57:48 UTC

KFKL TAF
Venango Regional Airport
Franklin, Pennsylvania, USA
KFKL 311124Z 3112/0112 VRB03KT P6SM OVC015

Mar-31@
12:00 UTC

Mar-31 @ 12:00 UTC

Apr-1@
12:00 UTC

Apr-1 @ 12:00 UTC

TAF KFKL 311124Z 3112/0112 VRB03KT P6SM OVC015
Wind
  • Variable at 3 KTS
Cloud Levels
  • Overcast at 1,500' AGL